createdAt,value
2019-05-05T00:00:36.580Z,320.0000
2019-05-05T00:01:38.694Z,320.0000
2019-05-05T00:02:39.577Z,321.0000
2019-05-05T00:03:41.463Z,321.0000
2019-05-05T00:04:45.325Z,321.0000
2019-05-05T00:05:47.417Z,326.0000
2019-05-05T00:06:49.521Z,324.0000
2019-05-05T00:07:51.446Z,324.0000
2019-05-05T00:08:54.699Z,324.0000
2019-05-05T00:09:56.785Z,323.0000
2019-05-05T00:10:58.665Z,323.0000
2019-05-05T00:12:00.714Z,328.0000
2019-05-05T00:13:04.531Z,326.0000
2019-05-05T00:14:06.597Z,326.0000
2019-05-05T00:15:08.488Z,327.0000
2019-05-05T00:16:10.282Z,318.0000
2019-05-05T00:17:12.098Z,322.0000
2019-05-05T00:18:14.815Z,326.0000
2019-05-05T00:19:29.499Z,328.0000
2019-05-05T00:20:24.966Z,328.0000
2019-05-05T00:21:26.837Z,328.0000
2019-05-05T00:22:28.856Z,328.0000
2019-05-05T00:23:30.086Z,328.0000
2019-05-05T00:24:31.280Z,328.0000
2019-05-05T00:25:34.315Z,328.0000
2019-05-05T00:26:36.234Z,328.0000
2019-05-05T00:27:38.459Z,328.0000
2019-05-05T00:28:40.365Z,328.0000
2019-05-05T00:29:42.240Z,328.0000
2019-05-05T00:30:44.837Z,328.0000
2019-05-05T00:31:46.567Z,328.0000
2019-05-05T00:32:48.796Z,328.0000
2019-05-05T00:33:49.987Z,328.0000
2019-05-05T00:34:51.794Z,329.0000
2019-05-05T00:35:54.478Z,340.0000
2019-05-05T00:36:55.478Z,356.0000
2019-05-05T00:37:57.693Z,1.0000
2019-05-05T00:38:59.637Z,2.0000
2019-05-05T00:40:01.486Z,10.0000
2019-05-05T00:41:05.324Z,8.0000
2019-05-05T00:42:06.673Z,7.0000
2019-05-05T00:43:08.841Z,6.0000
2019-05-05T00:44:09.664Z,7.0000
2019-05-05T00:45:11.530Z,9.0000
2019-05-05T00:46:15.991Z,9.0000
2019-05-05T00:47:18.332Z,9.0000
2019-05-05T00:48:20.747Z,9.0000
2019-05-05T00:49:24.934Z,9.0000
2019-05-05T00:50:26.253Z,9.0000
2019-05-05T00:51:28.098Z,9.0000
2019-05-05T00:52:29.446Z,9.0000
2019-05-05T00:53:31.691Z,9.0000
2019-05-05T00:54:34.708Z,9.0000
2019-05-05T00:55:36.690Z,9.0000
2019-05-05T00:56:38.530Z,9.0000
2019-05-05T00:57:40.577Z,9.0000
2019-05-05T00:58:44.638Z,9.0000
2019-05-05T00:59:45.620Z,9.0000
2019-05-05T01:00:47.544Z,9.0000
2019-05-05T01:01:49.442Z,9.0000
2019-05-05T01:02:50.292Z,9.0000
2019-05-05T01:03:51.483Z,9.0000
2019-05-05T01:04:54.979Z,9.0000
2019-05-05T01:05:57.196Z,9.0000
2019-05-05T01:06:59.162Z,9.0000
2019-05-05T01:08:01.185Z,9.0000
2019-05-05T01:09:04.199Z,9.0000
2019-05-05T01:10:06.146Z,9.0000
2019-05-05T01:11:08.023Z,9.0000
2019-05-05T01:12:09.924Z,9.0000
2019-05-05T01:13:11.760Z,9.0000
2019-05-05T01:14:14.483Z,9.0000
2019-05-05T01:15:16.036Z,9.0000
2019-05-05T01:16:18.039Z,9.0000
2019-05-05T01:17:20.095Z,9.0000
2019-05-05T01:18:22.079Z,9.0000
2019-05-05T01:19:24.391Z,9.0000
2019-05-05T01:20:26.318Z,9.0000
2019-05-05T01:21:28.153Z,9.0000
2019-05-05T01:22:29.979Z,9.0000
2019-05-05T01:23:31.876Z,9.0000
2019-05-05T01:24:34.277Z,9.0000
2019-05-05T01:25:36.109Z,9.0000
2019-05-05T01:26:38.252Z,9.0000
2019-05-05T01:27:39.613Z,9.0000
2019-05-05T01:28:41.499Z,9.0000
2019-05-05T01:29:45.192Z,9.0000
2019-05-05T01:30:47.116Z,9.0000
2019-05-05T01:31:48.986Z,9.0000
2019-05-05T01:32:50.910Z,9.0000
2019-05-05T01:33:54.184Z,9.0000
2019-05-05T01:34:56.277Z,10.0000
2019-05-05T01:35:58.074Z,10.0000
2019-05-05T01:36:59.944Z,10.0000
2019-05-05T01:38:01.858Z,10.0000
2019-05-05T01:39:04.239Z,10.0000
2019-05-05T01:40:05.561Z,9.0000
2019-05-05T01:41:07.384Z,10.0000
2019-05-05T01:42:09.217Z,10.0000
2019-05-05T01:43:11.049Z,10.0000
2019-05-05T01:44:12.854Z,10.0000
2019-05-05T01:45:15.007Z,10.0000
2019-05-05T01:46:16.813Z,10.0000
2019-05-05T01:47:18.562Z,10.0000
2019-05-05T01:48:20.451Z,10.0000
2019-05-05T01:49:21.660Z,10.0000
2019-05-05T01:50:24.672Z,10.0000
2019-05-05T01:51:27.011Z,10.0000
2019-05-05T01:52:28.850Z,10.0000
2019-05-05T01:53:30.810Z,10.0000
2019-05-05T01:54:32.644Z,10.0000
2019-05-05T01:55:34.826Z,10.0000
2019-05-05T01:56:36.919Z,10.0000
2019-05-05T01:57:38.901Z,10.0000
2019-05-05T01:58:40.742Z,10.0000
2019-05-05T01:59:44.680Z,10.0000
2019-05-05T02:00:46.097Z,10.0000
2019-05-05T02:01:48.337Z,10.0000
2019-05-05T02:02:49.543Z,10.0000
2019-05-05T02:03:51.376Z,10.0000
2019-05-05T02:04:55.136Z,10.0000
2019-05-05T02:05:57.267Z,10.0000
2019-05-05T02:06:59.285Z,10.0000
2019-05-05T02:08:01.158Z,10.0000
2019-05-05T02:09:05.167Z,10.0000
2019-05-05T02:10:07.186Z,10.0000
2019-05-05T02:11:08.415Z,10.0000
2019-05-05T02:12:10.494Z,10.0000
2019-05-05T02:13:12.293Z,10.0000
2019-05-05T02:14:15.613Z,10.0000
2019-05-05T02:15:16.896Z,10.0000
2019-05-05T02:16:18.757Z,10.0000
2019-05-05T02:17:20.834Z,10.0000
2019-05-05T02:18:22.681Z,10.0000
2019-05-05T02:19:25.201Z,10.0000
2019-05-05T02:20:30.831Z,10.0000
2019-05-05T02:21:32.646Z,10.0000
2019-05-05T02:22:35.618Z,10.0000
2019-05-05T02:23:37.000Z,10.0000
2019-05-05T02:24:38.793Z,10.0000
2019-05-05T02:25:39.982Z,10.0000
2019-05-05T02:26:41.847Z,10.0000
2019-05-05T02:27:44.683Z,10.0000
2019-05-05T02:28:46.774Z,10.0000
2019-05-05T02:29:48.644Z,10.0000
2019-05-05T02:30:50.520Z,10.0000
2019-05-05T02:31:52.303Z,10.0000
2019-05-05T02:32:55.453Z,10.0000
2019-05-05T02:33:57.370Z,10.0000
2019-05-05T02:34:59.102Z,10.0000
2019-05-05T02:36:00.310Z,10.0000
2019-05-05T02:37:05.249Z,10.0000
2019-05-05T02:38:07.348Z,10.0000
2019-05-05T02:39:09.601Z,10.0000
2019-05-05T02:40:11.743Z,10.0000
2019-05-05T02:41:15.460Z,10.0000
2019-05-05T02:42:17.488Z,10.0000
2019-05-05T02:43:19.350Z,10.0000
2019-05-05T02:44:21.416Z,10.0000
2019-05-05T02:45:24.850Z,10.0000
2019-05-05T02:46:26.005Z,10.0000
2019-05-05T02:47:27.911Z,10.0000
2019-05-05T02:48:29.843Z,10.0000
2019-05-05T02:49:34.954Z,10.0000
2019-05-05T02:50:51.119Z,10.0000
2019-05-05T02:51:44.676Z,10.0000
2019-05-05T02:52:46.704Z,10.0000
2019-05-05T02:53:48.541Z,10.0000
2019-05-05T02:54:50.624Z,10.0000
2019-05-05T02:55:53.323Z,10.0000
2019-05-05T02:56:55.253Z,10.0000
2019-05-05T02:57:57.125Z,10.0000
2019-05-05T02:58:58.964Z,10.0000
2019-05-05T03:00:00.265Z,10.0000
2019-05-05T03:01:02.379Z,10.0000
2019-05-05T03:02:04.444Z,10.0000
2019-05-05T03:03:06.338Z,10.0000
2019-05-05T03:04:08.168Z,10.0000
2019-05-05T03:05:10.074Z,10.0000
2019-05-05T03:06:14.360Z,10.0000
2019-05-05T03:07:16.363Z,10.0000
2019-05-05T03:08:18.302Z,10.0000
2019-05-05T03:09:20.114Z,10.0000
2019-05-05T03:10:21.894Z,10.0000
2019-05-05T03:11:23.965Z,11.0000
2019-05-05T03:12:25.828Z,11.0000
2019-05-05T03:13:27.642Z,11.0000
2019-05-05T03:14:28.848Z,11.0000
2019-05-05T03:15:30.033Z,11.0000
2019-05-05T03:16:31.231Z,11.0000
2019-05-05T03:17:34.092Z,11.0000
2019-05-05T03:18:36.233Z,11.0000
2019-05-05T03:19:38.122Z,11.0000
2019-05-05T03:20:40.014Z,11.0000
2019-05-05T03:21:44.179Z,11.0000
2019-05-05T03:22:46.179Z,10.0000
2019-05-05T03:23:47.364Z,11.0000
2019-05-05T03:24:49.240Z,11.0000
2019-05-05T03:25:51.034Z,10.0000
2019-05-05T03:26:53.710Z,10.0000
2019-05-05T03:27:55.182Z,10.0000
2019-05-05T03:28:57.035Z,11.0000
2019-05-05T03:29:58.937Z,11.0000
2019-05-05T03:31:00.772Z,11.0000
2019-05-05T03:32:05.496Z,11.0000
2019-05-05T03:33:08.300Z,11.0000
2019-05-05T03:34:10.125Z,11.0000
2019-05-05T03:35:13.532Z,11.0000
2019-05-05T03:36:14.959Z,11.0000
2019-05-05T03:37:17.206Z,11.0000
2019-05-05T03:38:18.400Z,11.0000
2019-05-05T03:39:20.265Z,11.0000
2019-05-05T03:40:23.854Z,11.0000
2019-05-05T03:41:25.782Z,11.0000
2019-05-05T03:42:27.937Z,11.0000
2019-05-05T03:43:29.993Z,11.0000
2019-05-05T03:44:33.527Z,11.0000
2019-05-05T03:45:35.465Z,11.0000
2019-05-05T03:46:37.265Z,11.0000
2019-05-05T03:47:39.128Z,11.0000
2019-05-05T03:48:41.241Z,11.0000
2019-05-05T03:49:44.180Z,11.0000
2019-05-05T03:50:45.481Z,11.0000
2019-05-05T03:51:47.282Z,11.0000
2019-05-05T03:52:49.103Z,11.0000
2019-05-05T03:53:51.110Z,11.0000
2019-05-05T03:54:54.167Z,11.0000
2019-05-05T03:55:56.098Z,11.0000
2019-05-05T03:56:57.873Z,11.0000
2019-05-05T03:57:59.740Z,11.0000
2019-05-05T03:59:01.938Z,11.0000
2019-05-05T04:00:04.431Z,11.0000
2019-05-05T04:01:06.130Z,11.0000
2019-05-05T04:02:07.984Z,11.0000
2019-05-05T04:03:09.747Z,11.0000
2019-05-05T04:04:11.552Z,11.0000
2019-05-05T04:05:14.545Z,11.0000
2019-05-05T04:06:15.857Z,11.0000
2019-05-05T04:07:17.055Z,11.0000
2019-05-05T04:08:18.247Z,11.0000
2019-05-05T04:09:19.890Z,11.0000
2019-05-05T04:10:21.675Z,11.0000
2019-05-05T04:11:23.678Z,11.0000
2019-05-05T04:12:25.505Z,11.0000
2019-05-05T04:13:27.264Z,11.0000
2019-05-05T04:14:29.254Z,11.0000
2019-05-05T04:15:31.047Z,11.0000
2019-05-05T04:16:34.240Z,11.0000
2019-05-05T04:17:36.084Z,11.0000
2019-05-05T04:18:37.988Z,11.0000
2019-05-05T04:19:40.066Z,11.0000
2019-05-05T04:20:44.035Z,11.0000
2019-05-05T04:21:45.433Z,11.0000
2019-05-05T04:22:47.388Z,11.0000
2019-05-05T04:23:49.076Z,11.0000
2019-05-05T04:24:51.168Z,11.0000
2019-05-05T04:25:54.436Z,11.0000
2019-05-05T04:26:56.430Z,11.0000
2019-05-05T04:27:58.240Z,11.0000
2019-05-05T04:29:02.437Z,11.0000
2019-05-05T04:30:05.754Z,11.0000
2019-05-05T04:31:07.582Z,11.0000
2019-05-05T04:32:08.768Z,11.0000
2019-05-05T04:33:10.657Z,11.0000
2019-05-05T04:34:13.482Z,11.0000
2019-05-05T04:35:15.813Z,11.0000
2019-05-05T04:36:17.047Z,11.0000
2019-05-05T04:37:18.871Z,14.0000
2019-05-05T04:38:20.779Z,24.0000
2019-05-05T04:39:23.690Z,23.0000
2019-05-05T04:40:24.974Z,23.0000
2019-05-05T04:41:26.910Z,23.0000
2019-05-05T04:42:28.732Z,23.0000
2019-05-05T04:43:30.660Z,23.0000
2019-05-05T04:44:34.616Z,26.0000
2019-05-05T04:45:36.717Z,26.0000
2019-05-05T04:46:37.918Z,23.0000
2019-05-05T04:47:39.760Z,19.0000
2019-05-05T04:48:40.961Z,19.0000
2019-05-05T04:49:42.159Z,19.0000
2019-05-05T04:50:44.233Z,17.0000
2019-05-05T04:51:49.968Z,15.0000
2019-05-05T04:52:53.939Z,13.0000
2019-05-05T04:53:54.919Z,13.0000
2019-05-05T04:54:56.148Z,13.0000
2019-05-05T04:55:58.023Z,12.0000
2019-05-05T04:57:00.036Z,11.0000
2019-05-05T04:58:01.929Z,11.0000
2019-05-05T04:59:04.173Z,11.0000
2019-05-05T05:00:06.116Z,11.0000
2019-05-05T05:01:07.953Z,11.0000
2019-05-05T05:02:10.097Z,11.0000
2019-05-05T05:03:13.347Z,11.0000
2019-05-05T05:04:15.345Z,11.0000
2019-05-05T05:05:17.249Z,10.0000
2019-05-05T05:06:19.096Z,11.0000
2019-05-05T05:07:21.211Z,11.0000
2019-05-05T05:08:24.771Z,11.0000
2019-05-05T05:09:26.054Z,11.0000
2019-05-05T05:10:27.982Z,11.0000
2019-05-05T05:11:29.682Z,11.0000
2019-05-05T05:12:33.973Z,15.0000
2019-05-05T05:13:35.405Z,9.0000
2019-05-05T05:14:37.329Z,9.0000
2019-05-05T05:15:39.003Z,9.0000
2019-05-05T05:16:40.872Z,9.0000
2019-05-05T05:17:44.289Z,9.0000
2019-05-05T05:18:45.345Z,9.0000
2019-05-05T05:19:47.256Z,9.0000
2019-05-05T05:20:49.091Z,9.0000
2019-05-05T05:22:00.831Z,9.0000
2019-05-05T05:22:57.286Z,9.0000
2019-05-05T05:23:59.177Z,7.0000
2019-05-05T05:25:01.012Z,50.0000
2019-05-05T05:26:02.225Z,76.0000
2019-05-05T05:27:05.035Z,55.0000
2019-05-05T05:28:06.382Z,47.0000
2019-05-05T05:29:08.303Z,53.0000
2019-05-05T05:30:10.160Z,45.0000
2019-05-05T05:31:14.042Z,8.0000
2019-05-05T05:32:15.634Z,28.0000
2019-05-05T05:33:17.577Z,29.0000
2019-05-05T05:34:19.723Z,30.0000
2019-05-05T05:35:21.594Z,35.0000
2019-05-05T05:36:24.758Z,35.0000
2019-05-05T05:37:26.802Z,23.0000
2019-05-05T05:38:28.750Z,14.0000
2019-05-05T05:39:31.012Z,14.0000
2019-05-05T05:40:34.202Z,14.0000
2019-05-05T05:41:36.336Z,27.0000
2019-05-05T05:42:38.014Z,29.0000
2019-05-05T05:43:39.928Z,26.0000
2019-05-05T05:44:41.075Z,27.0000
2019-05-05T05:45:43.644Z,29.0000
2019-05-05T05:46:44.827Z,46.0000
2019-05-05T05:47:46.798Z,68.0000
2019-05-05T05:48:48.712Z,73.0000
2019-05-05T05:49:50.905Z,71.0000
2019-05-05T05:50:53.702Z,71.0000
2019-05-05T05:51:55.682Z,63.0000
2019-05-05T05:52:57.557Z,63.0000
2019-05-05T05:53:59.432Z,55.0000
2019-05-05T05:55:01.295Z,62.0000
2019-05-05T05:56:04.223Z,88.0000
2019-05-05T05:57:05.589Z,64.0000
2019-05-05T05:58:07.617Z,50.0000
2019-05-05T05:59:09.439Z,50.0000
2019-05-05T06:00:11.415Z,50.0000
2019-05-05T06:01:14.691Z,50.0000
2019-05-05T06:02:15.848Z,50.0000
2019-05-05T06:03:17.740Z,50.0000
2019-05-05T06:04:19.579Z,38.0000
2019-05-05T06:05:20.771Z,27.0000
2019-05-05T06:06:23.993Z,66.0000
2019-05-05T06:07:25.348Z,30.0000
2019-05-05T06:08:29.934Z,338.0000
2019-05-05T06:09:31.780Z,36.0000
2019-05-05T06:10:34.005Z,37.0000
2019-05-05T06:11:35.813Z,37.0000
2019-05-05T06:12:37.735Z,37.0000
2019-05-05T06:13:39.802Z,37.0000
2019-05-05T06:14:40.794Z,55.0000
2019-05-05T06:15:44.416Z,66.0000
2019-05-05T06:16:46.925Z,72.0000
2019-05-05T06:17:48.117Z,69.0000
2019-05-05T06:18:50.097Z,69.0000
2019-05-05T06:19:53.471Z,29.0000
2019-05-05T06:20:55.479Z,69.0000
2019-05-05T06:21:57.426Z,77.0000
2019-05-05T06:22:59.314Z,16.0000
2019-05-05T06:24:01.252Z,61.0000
2019-05-05T06:25:06.660Z,86.0000
2019-05-05T06:26:08.279Z,34.0000
2019-05-05T06:27:10.480Z,58.0000
2019-05-05T06:28:11.672Z,75.0000
2019-05-05T06:29:14.546Z,34.0000
2019-05-05T06:30:15.920Z,31.0000
2019-05-05T06:31:17.897Z,30.0000
2019-05-05T06:32:19.170Z,64.0000
2019-05-05T06:33:21.128Z,55.0000
2019-05-05T06:34:24.443Z,20.0000
2019-05-05T06:35:26.506Z,7.0000
2019-05-05T06:36:28.429Z,23.0000
2019-05-05T06:37:30.878Z,48.0000
2019-05-05T06:38:34.570Z,62.0000
2019-05-05T06:39:36.722Z,13.0000
2019-05-05T06:40:38.137Z,20.0000
2019-05-05T06:41:40.092Z,39.0000
2019-05-05T06:42:43.415Z,62.0000
2019-05-05T06:43:45.385Z,59.0000
2019-05-05T06:44:47.304Z,57.0000
2019-05-05T06:45:49.632Z,57.0000
2019-05-05T06:46:51.451Z,60.0000
2019-05-05T06:47:53.864Z,72.0000
2019-05-05T06:48:55.795Z,68.0000
2019-05-05T06:49:57.699Z,6.0000
2019-05-05T06:50:59.603Z,17.0000
2019-05-05T06:52:03.862Z,34.0000
2019-05-05T06:53:05.523Z,34.0000
2019-05-05T06:54:07.427Z,34.0000
2019-05-05T06:55:09.373Z,35.0000
2019-05-05T06:56:11.268Z,28.0000
2019-05-05T06:57:13.846Z,0.0000
2019-05-05T06:58:15.186Z,6.0000
2019-05-05T06:59:16.902Z,67.0000
2019-05-05T07:00:18.847Z,84.0000
2019-05-05T07:01:20.804Z,84.0000
2019-05-05T07:02:23.789Z,58.0000
2019-05-05T07:03:25.498Z,41.0000
2019-05-05T07:04:27.435Z,51.0000
2019-05-05T07:05:29.303Z,51.0000
2019-05-05T07:06:31.184Z,51.0000
2019-05-05T07:07:34.286Z,46.0000
2019-05-05T07:08:36.614Z,44.0000
2019-05-05T07:09:38.433Z,44.0000
2019-05-05T07:10:40.267Z,44.0000
2019-05-05T07:11:43.677Z,44.0000
2019-05-05T07:12:45.922Z,44.0000
2019-05-05T07:13:48.258Z,63.0000
2019-05-05T07:14:49.281Z,77.0000
2019-05-05T07:15:51.126Z,32.0000
2019-05-05T07:16:54.466Z,30.0000
2019-05-05T07:17:56.529Z,79.0000
2019-05-05T07:18:58.780Z,80.0000
2019-05-05T07:20:00.708Z,81.0000
2019-05-05T07:21:03.640Z,82.0000
2019-05-05T07:22:05.332Z,86.0000
2019-05-05T07:23:07.138Z,77.0000
2019-05-05T07:24:08.349Z,36.0000
2019-05-05T07:25:10.236Z,355.0000
2019-05-05T07:26:14.333Z,61.0000
2019-05-05T07:27:16.475Z,56.0000
2019-05-05T07:28:18.370Z,45.0000
2019-05-05T07:29:20.287Z,76.0000
2019-05-05T07:30:24.299Z,70.0000
2019-05-05T07:31:25.267Z,17.0000
2019-05-05T07:32:27.190Z,50.0000
2019-05-05T07:33:29.105Z,72.0000
2019-05-05T07:34:30.980Z,72.0000
2019-05-05T07:35:34.339Z,72.0000
2019-05-05T07:36:36.548Z,84.0000
2019-05-05T07:37:38.428Z,84.0000
2019-05-05T07:38:40.299Z,84.0000
2019-05-05T07:39:44.558Z,83.0000
2019-05-05T07:40:45.861Z,75.0000
2019-05-05T07:41:47.728Z,41.0000
2019-05-05T07:42:49.226Z,29.0000
2019-05-05T07:43:51.028Z,23.0000
2019-05-05T07:44:54.655Z,23.0000
2019-05-05T07:45:56.981Z,23.0000
2019-05-05T07:46:58.863Z,34.0000
2019-05-05T07:48:00.748Z,66.0000
2019-05-05T07:49:03.913Z,62.0000
2019-05-05T07:50:04.884Z,57.0000
2019-05-05T07:51:06.747Z,43.0000
2019-05-05T07:52:08.014Z,7.0000
2019-05-05T07:53:14.667Z,23.0000
2019-05-05T07:54:16.465Z,43.0000
2019-05-05T07:55:18.418Z,18.0000
2019-05-05T07:56:20.772Z,0.0000
2019-05-05T07:57:23.817Z,50.0000
2019-05-05T07:58:24.730Z,29.0000
2019-05-05T07:59:26.703Z,64.0000
2019-05-05T08:00:28.560Z,41.0000
2019-05-05T08:01:30.700Z,36.0000
2019-05-05T08:02:33.866Z,23.0000
2019-05-05T08:03:35.952Z,59.0000
2019-05-05T08:04:37.985Z,78.0000
2019-05-05T08:05:39.824Z,74.0000
2019-05-05T08:06:41.870Z,77.0000
2019-05-05T08:07:44.691Z,10.0000
2019-05-05T08:08:46.709Z,49.0000
2019-05-05T08:09:48.641Z,43.0000
2019-05-05T08:10:50.460Z,20.0000
2019-05-05T08:11:54.216Z,53.0000
2019-05-05T08:12:56.688Z,47.0000
2019-05-05T08:13:58.355Z,65.0000
2019-05-05T08:15:00.475Z,51.0000
2019-05-05T08:16:03.853Z,17.0000
2019-05-05T08:17:05.130Z,24.0000
2019-05-05T08:18:06.885Z,11.0000
2019-05-05T08:19:08.735Z,49.0000
2019-05-05T08:20:10.671Z,43.0000
2019-05-05T08:21:13.633Z,48.0000
2019-05-05T08:22:14.918Z,65.0000
2019-05-05T08:23:28.991Z,34.0000
2019-05-05T08:24:24.408Z,51.0000
2019-05-05T08:25:36.178Z,21.0000
2019-05-05T08:26:33.692Z,29.0000
2019-05-05T08:27:34.662Z,58.0000
2019-05-05T08:28:36.529Z,47.0000
2019-05-05T08:29:37.353Z,29.0000
2019-05-05T08:30:39.164Z,32.0000
2019-05-05T08:31:41.060Z,34.0000
2019-05-05T08:32:43.637Z,28.0000
2019-05-05T08:33:45.744Z,24.0000
2019-05-05T08:34:56.866Z,14.0000
2019-05-05T08:35:54.236Z,47.0000
2019-05-05T08:36:55.481Z,24.0000
2019-05-05T08:37:57.345Z,44.0000
2019-05-05T08:38:58.634Z,42.0000
2019-05-05T08:40:00.459Z,48.0000
2019-05-05T08:41:04.424Z,25.0000
2019-05-05T08:42:06.453Z,63.0000
2019-05-05T08:43:08.344Z,42.0000
2019-05-05T08:44:10.681Z,64.0000
2019-05-05T08:45:13.833Z,44.0000
2019-05-05T08:46:15.158Z,59.0000
2019-05-05T08:47:17.110Z,67.0000
2019-05-05T08:48:18.983Z,76.0000
2019-05-05T08:49:21.114Z,46.0000
2019-05-05T08:50:26.293Z,7.0000
2019-05-05T08:51:27.625Z,32.0000
2019-05-05T08:52:29.463Z,32.0000
2019-05-05T08:53:41.529Z,33.0000
2019-05-05T08:54:37.830Z,61.0000
2019-05-05T08:55:39.260Z,23.0000
2019-05-05T08:56:41.370Z,44.0000
2019-05-05T08:57:44.691Z,33.0000
2019-05-05T08:58:49.709Z,29.0000
2019-05-05T08:59:51.658Z,38.0000
2019-05-05T09:00:53.798Z,69.0000
2019-05-05T09:01:54.994Z,33.0000
2019-05-05T09:02:56.847Z,20.0000
2019-05-05T09:03:58.366Z,10.0000
2019-05-05T09:04:59.706Z,13.0000
2019-05-05T09:06:01.584Z,25.0000
2019-05-05T09:07:05.073Z,16.0000
2019-05-05T09:08:06.378Z,23.0000
2019-05-05T09:09:08.173Z,46.0000
2019-05-05T09:10:10.447Z,46.0000
2019-05-05T09:11:14.032Z,38.0000
2019-05-05T09:12:15.369Z,67.0000
2019-05-05T09:13:17.254Z,33.0000
2019-05-05T09:14:19.111Z,45.0000
2019-05-05T09:15:21.248Z,45.0000
2019-05-05T09:16:24.167Z,80.0000
2019-05-05T09:17:28.052Z,12.0000
2019-05-05T09:18:29.337Z,41.0000
2019-05-05T09:19:30.312Z,41.0000
2019-05-05T09:20:34.611Z,57.0000
2019-05-05T09:21:35.734Z,65.0000
2019-05-05T09:22:37.578Z,36.0000
2019-05-05T09:23:39.364Z,50.0000
2019-05-05T09:24:41.451Z,30.0000
2019-05-05T09:25:44.624Z,52.0000
2019-05-05T09:26:45.639Z,11.0000
2019-05-05T09:27:47.608Z,34.0000
2019-05-05T09:28:49.533Z,6.0000
2019-05-05T09:29:50.438Z,8.0000
2019-05-05T09:30:53.663Z,16.0000
2019-05-05T09:31:55.621Z,49.0000
2019-05-05T09:32:57.373Z,14.0000
2019-05-05T09:33:58.574Z,25.0000
2019-05-05T09:34:59.767Z,47.0000
2019-05-05T09:36:00.735Z,65.0000
2019-05-05T09:37:03.640Z,51.0000
2019-05-05T09:38:05.804Z,77.0000
2019-05-05T09:39:07.578Z,47.0000
2019-05-05T09:40:10.022Z,29.0000
2019-05-05T09:41:10.907Z,72.0000
2019-05-05T09:42:14.582Z,34.0000
2019-05-05T09:43:15.959Z,54.0000
2019-05-05T09:44:17.796Z,26.0000
2019-05-05T09:45:19.893Z,47.0000
2019-05-05T09:46:23.450Z,24.0000
2019-05-05T09:47:24.742Z,48.0000
2019-05-05T09:48:26.775Z,50.0000
2019-05-05T09:49:28.588Z,42.0000
2019-05-05T09:50:30.629Z,67.0000
2019-05-05T09:51:31.509Z,39.0000
2019-05-05T09:52:33.837Z,58.0000
2019-05-05T09:53:36.030Z,27.0000
2019-05-05T09:54:37.921Z,32.0000
2019-05-05T09:55:40.042Z,40.0000
2019-05-05T09:56:41.899Z,72.0000
2019-05-05T09:57:43.990Z,70.0000
2019-05-05T09:58:46.171Z,49.0000
2019-05-05T09:59:48.259Z,46.0000
2019-05-05T10:00:50.151Z,51.0000
2019-05-05T10:01:53.768Z,77.0000
2019-05-05T10:02:55.849Z,52.0000
2019-05-05T10:03:57.705Z,43.0000
2019-05-05T10:04:59.687Z,4.0000
2019-05-05T10:06:01.669Z,18.0000
2019-05-05T10:07:04.417Z,19.0000
2019-05-05T10:08:05.860Z,38.0000
2019-05-05T10:09:07.832Z,41.0000
2019-05-05T10:10:09.042Z,25.0000
2019-05-05T10:11:10.232Z,15.0000
2019-05-05T10:12:10.391Z,30.0000
2019-05-05T10:13:14.671Z,54.0000
2019-05-05T10:14:16.545Z,62.0000
2019-05-05T10:15:18.777Z,57.0000
2019-05-05T10:16:20.530Z,59.0000
2019-05-05T10:17:36.278Z,50.0000
2019-05-05T10:18:37.466Z,14.0000
2019-05-05T10:19:39.409Z,36.0000
2019-05-05T10:20:41.536Z,76.0000
2019-05-05T10:21:44.392Z,41.0000
2019-05-05T10:22:46.885Z,48.0000
2019-05-05T10:23:48.712Z,29.0000
2019-05-05T10:24:50.621Z,10.0000
2019-05-05T10:25:53.942Z,16.0000
2019-05-05T10:26:58.457Z,30.0000
2019-05-05T10:28:01.201Z,345.0000
2019-05-05T10:29:04.241Z,354.0000
2019-05-05T10:30:06.165Z,56.0000
2019-05-05T10:31:08.348Z,49.0000
2019-05-05T10:32:10.360Z,51.0000
2019-05-05T10:33:14.106Z,43.0000
2019-05-05T10:34:16.117Z,45.0000
2019-05-05T10:35:17.882Z,39.0000
2019-05-05T10:36:20.043Z,346.0000
2019-05-05T10:37:23.524Z,50.0000
2019-05-05T10:38:25.433Z,46.0000
2019-05-05T10:39:27.333Z,49.0000
2019-05-05T10:40:29.135Z,20.0000
2019-05-05T10:41:31.136Z,33.0000
2019-05-05T10:42:33.639Z,9.0000
2019-05-05T10:43:34.589Z,32.0000
2019-05-05T10:44:36.368Z,29.0000
2019-05-05T10:45:38.236Z,7.0000
2019-05-05T10:46:40.326Z,58.0000
2019-05-05T10:47:44.078Z,55.0000
2019-05-05T10:48:46.033Z,65.0000
2019-05-05T10:49:47.874Z,18.0000
2019-05-05T10:50:49.707Z,14.0000
2019-05-05T10:51:51.806Z,9.0000
2019-05-05T10:52:53.803Z,26.0000
2019-05-05T10:53:55.995Z,30.0000
2019-05-05T10:54:57.828Z,35.0000
2019-05-05T10:55:59.716Z,34.0000
2019-05-05T10:57:03.597Z,38.0000
2019-05-05T10:58:05.286Z,8.0000
2019-05-05T10:59:07.324Z,0.0000
2019-05-05T11:00:12.503Z,37.0000
2019-05-05T11:01:15.858Z,49.0000
2019-05-05T11:02:18.244Z,355.0000
2019-05-05T11:03:20.403Z,41.0000
2019-05-05T11:04:24.374Z,21.0000
2019-05-05T11:05:26.245Z,31.0000
2019-05-05T11:06:28.172Z,61.0000
2019-05-05T11:07:30.540Z,81.0000
2019-05-05T11:08:31.469Z,16.0000
2019-05-05T11:09:33.839Z,25.0000
2019-05-05T11:10:35.910Z,53.0000
2019-05-05T11:11:36.936Z,34.0000
2019-05-05T11:12:37.894Z,59.0000
2019-05-05T11:13:42.728Z,62.0000
2019-05-05T11:14:45.426Z,45.0000
2019-05-05T11:15:46.558Z,55.0000
2019-05-05T11:16:48.413Z,64.0000
2019-05-05T11:17:50.552Z,37.0000
2019-05-05T11:18:54.047Z,14.0000
2019-05-05T11:19:56.018Z,75.0000
2019-05-05T11:20:57.856Z,64.0000
2019-05-05T11:21:59.720Z,53.0000
2019-05-05T11:23:01.592Z,77.0000
2019-05-05T11:24:03.660Z,53.0000
2019-05-05T11:25:05.201Z,75.0000
2019-05-05T11:26:07.072Z,82.0000
2019-05-05T11:27:08.913Z,84.0000
2019-05-05T11:28:10.770Z,84.0000
2019-05-05T11:29:13.528Z,65.0000
2019-05-05T11:30:15.647Z,50.0000
2019-05-05T11:31:17.517Z,56.0000
2019-05-05T11:32:19.333Z,69.0000
2019-05-05T11:33:20.220Z,65.0000
2019-05-05T11:34:24.508Z,39.0000
2019-05-05T11:35:26.778Z,35.0000
2019-05-05T11:36:28.777Z,14.0000
2019-05-05T11:37:29.632Z,353.0000
2019-05-05T11:38:33.716Z,8.0000
2019-05-05T11:39:35.380Z,67.0000
2019-05-05T11:40:37.257Z,47.0000
2019-05-05T11:41:54.839Z,43.0000
2019-05-05T11:42:56.785Z,58.0000
2019-05-05T11:43:57.738Z,58.0000
2019-05-05T11:44:59.615Z,46.0000
2019-05-05T11:46:01.263Z,27.0000
2019-05-05T11:47:03.655Z,39.0000
2019-05-05T11:48:05.018Z,37.0000
2019-05-05T11:49:06.271Z,7.0000
2019-05-05T11:50:08.291Z,30.0000
2019-05-05T11:51:17.310Z,353.0000
2019-05-05T11:52:19.172Z,13.0000
2019-05-05T11:53:20.944Z,357.0000
2019-05-05T11:54:24.479Z,62.0000
2019-05-05T11:55:27.125Z,51.0000
2019-05-05T11:56:33.835Z,30.0000
2019-05-05T11:57:43.683Z,1.0000
2019-05-05T11:58:44.996Z,53.0000
2019-05-05T11:59:46.859Z,7.0000
2019-05-05T12:00:49.078Z,9.0000
2019-05-05T12:01:50.958Z,8.0000
2019-05-05T12:02:54.379Z,323.0000
2019-05-05T12:03:56.202Z,25.0000
2019-05-05T12:04:57.997Z,17.0000
2019-05-05T12:06:00.014Z,22.0000
2019-05-05T12:07:03.896Z,13.0000
2019-05-05T12:08:05.882Z,341.0000
2019-05-05T12:09:07.727Z,47.0000
2019-05-05T12:10:09.672Z,48.0000
2019-05-05T12:11:11.872Z,48.0000
2019-05-05T12:12:14.291Z,45.0000
2019-05-05T12:13:16.345Z,50.0000
2019-05-05T12:14:17.302Z,47.0000
2019-05-05T12:15:19.136Z,30.0000
2019-05-05T12:16:21.295Z,58.0000
2019-05-05T12:17:24.301Z,22.0000
2019-05-05T12:18:26.175Z,41.0000
2019-05-05T12:19:33.099Z,48.0000
2019-05-05T12:20:35.613Z,36.0000
2019-05-05T12:21:37.876Z,30.0000
2019-05-05T12:22:40.019Z,19.0000
2019-05-05T12:23:44.207Z,20.0000
2019-05-05T12:24:45.397Z,49.0000
2019-05-05T12:25:47.252Z,42.0000
2019-05-05T12:26:49.175Z,30.0000
2019-05-05T12:27:51.189Z,70.0000
2019-05-05T12:28:54.568Z,52.0000
2019-05-05T12:29:56.500Z,30.0000
2019-05-05T12:30:58.272Z,43.0000
2019-05-05T12:32:00.258Z,305.0000
2019-05-05T12:33:02.358Z,31.0000
2019-05-05T12:34:04.252Z,36.0000
2019-05-05T12:35:05.053Z,19.0000